Time;durP1;ratioP1;P1;durP2;ratioP2;P2;SDS_P1;SDS_P2;PMS_P1;PMS_P2;Temp;Humidity;BMP_temperature;BMP_pressure;BME280_temperature;BME280_humidity;BME280_pressure;Samples;Min_cycle;Max_cycle;Signal;HPM_P1;HPM_P2
2021/12/01 00:00:27;;;;;;;0.8;0.7;;;;;;;4.48;96.73633;933.0994;;;;
2021/12/01 00:03:01;;;;;;;7.3;3.8;;;;;;;4.57;96.07227;932.9669;;;;
2021/12/01 00:05:27;;;;;;;6.3;3.2;;;;;;;4.6;95.75195;932.9825;;;;
2021/12/01 00:07:55;;;;;;;7.9;3.1;;;;;;;4.63;95.53027;932.9006;;;;
2021/12/01 00:10:20;;;;;;;2.9;1.9;;;;;;;4.77;94.92285;933.0332;;;;
2021/12/01 00:12:46;;;;;;;1.7;1.4;;;;;;;4.71;94.38086;932.8986;;;;
2021/12/01 00:15:17;;;;;;;3.3;1.8;;;;;;;4.69;94.89551;932.8477;;;;
2021/12/01 00:17:46;;;;;;;11.1;5.4;;;;;;;4.74;94.31738;932.8376;;;;
2021/12/01 00:20:12;;;;;;;11.8;6.1;;;;;;;4.55;95.64941;932.8773;;;;
2021/12/01 00:22:39;;;;;;;3.6;1.5;;;;;;;4.59;95.09668;932.7891;;;;
2021/12/01 00:25:02;;;;;;;6.4;3.5;;;;;;;4.53;95.40918;932.8776;;;;
2021/12/01 00:27:27;;;;;;;4.2;2.6;;;;;;;4.59;95.72754;932.7765;;;;
2021/12/01 00:29:56;;;;;;;16.7;9.1;;;;;;;4.62;95.40625;932.8452;;;;
2021/12/01 00:32:23;;;;;;;1.3;1.1;;;;;;;4.38;95.50977;932.687;;;;
2021/12/01 00:34:45;;;;;;;0.9;0.5;;;;;;;4.38;96.08594;932.87;;;;
2021/12/01 00:37:13;;;;;;;0.8;0.5;;;;;;;4.42;96.21777;932.8292;;;;
2021/12/01 00:39:36;;;;;;;2.1;1.3;;;;;;;4.35;96.56152;932.8644;;;;
2021/12/01 00:42:01;;;;;;;15.3;7.5;;;;;;;4.35;96.58203;932.5988;;;;
2021/12/01 00:44:31;;;;;;;2.7;1.7;;;;;;;4.3;96.54883;932.5661;;;;
2021/12/01 00:47:04;;;;;;;7;4.9;;;;;;;4.51;95.9248;932.6454;;;;
2021/12/01 00:49:19;;;;;;;5.1;3.7;;;;;;;4.61;95.02148;932.588;;;;
2021/12/01 00:51:44;;;;;;;2.9;1.9;;;;;;;4.4;95.11035;932.4928;;;;
2021/12/01 00:54:11;;;;;;;15.7;7.1;;;;;;;4.41;94.97949;932.4107;;;;
2021/12/01 00:56:36;;;;;;;5.7;3.3;;;;;;;4.43;95.4541;932.3464;;;;
2021/12/01 00:59:01;;;;;;;4.3;2.3;;;;;;;4.37;95.46484;932.3102;;;;
2021/12/01 01:01:33;;;;;;;1;0.9;;;;;;;4.26;96.55273;932.2704;;;;
2021/12/01 01:03:57;;;;;;;0.8;0.8;;;;;;;4.35;97.02246;932.249;;;;
2021/12/01 01:06:28;;;;;;;1.6;0.9;;;;;;;4.5;96.04297;932.2037;;;;
2021/12/01 01:08:53;;;;;;;1.1;1;;;;;;;4.36;96.00098;932.2947;;;;
2021/12/01 01:16:26;;;;;;;1.2;1.1;;;;;;;4.49;95.07227;932.1426;;;;
2021/12/01 01:18:40;;;;;;;1.5;1.2;;;;;;;4.57;94.56348;932.2194;;;;
2021/12/01 01:21:05;;;;;;;2;1.4;;;;;;;4.43;94.63281;932.2061;;;;
2021/12/01 01:23:37;;;;;;;1.4;1.3;;;;;;;4.5;94.77051;932.206;;;;
2021/12/01 01:26:02;;;;;;;1.2;1.1;;;;;;;4.56;94.53906;932.1538;;;;
2021/12/01 01:28:27;;;;;;;0.8;0.8;;;;;;;4.59;94.3418;932.186;;;;
2021/12/01 01:30:53;;;;;;;1.3;1.2;;;;;;;4.68;94.07813;932.1685;;;;
2021/12/01 01:33:20;;;;;;;0.5;0.5;;;;;;;4.64;93.95801;932.166;;;;
2021/12/01 01:35:45;;;;;;;1.5;0.6;;;;;;;4.61;93.83887;932.1079;;;;
2021/12/01 01:38:11;;;;;;;4.2;0.9;;;;;;;4.53;94.41992;932.0247;;;;
2021/12/01 01:40:37;;;;;;;1;0.9;;;;;;;4.47;95.19434;931.9785;;;;
2021/12/01 01:43:02;;;;;;;1.9;1.7;;;;;;;4.45;95.59375;931.9426;;;;
2021/12/01 01:45:42;;;;;;;1.8;0.8;;;;;;;4.39;95.34473;931.9677;;;;
2021/12/01 01:48:08;;;;;;;0.9;0.4;;;;;;;4.26;95.91113;932.0278;;;;
2021/12/01 01:50:40;;;;;;;0.4;0.4;;;;;;;4.32;95.3291;931.9851;;;;
2021/12/01 01:53:04;;;;;;;0.2;0.2;;;;;;;4.29;95.09766;931.9064;;;;
2021/12/01 01:55:29;;;;;;;0.4;0.4;;;;;;;4.34;94.82617;931.8317;;;;
2021/12/01 01:57:54;;;;;;;1.2;1.2;;;;;;;4.22;95.50684;931.7921;;;;
2021/12/01 02:00:24;;;;;;;2.4;1.7;;;;;;;4.12;96.75586;931.788;;;;
2021/12/01 02:02:52;;;;;;;1.4;1;;;;;;;4.09;96.97656;931.6653;;;;
2021/12/01 02:05:16;;;;;;;0.6;0.6;;;;;;;4.3;96.44824;931.7008;;;;
2021/12/01 02:07:46;;;;;;;0.7;0.7;;;;;;;4.14;96.51465;931.6506;;;;
2021/12/01 02:10:16;;;;;;;1.2;0.4;;;;;;;4.04;96.8291;931.7074;;;;
2021/12/01 02:12:40;;;;;;;0.6;0.6;;;;;;;3.96;97.94629;931.5353;;;;
2021/12/01 02:15:16;;;;;;;0.7;0.7;;;;;;;3.85;98.37109;931.613;;;;
2021/12/01 02:17:48;;;;;;;2.3;2.2;;;;;;;4.03;98.31152;931.5165;;;;
2021/12/01 02:20:15;;;;;;;0.6;0.6;;;;;;;4.13;97.67285;931.5165;;;;
2021/12/01 02:22:41;;;;;;;0.1;0.1;;;;;;;4.11;97.62207;931.5522;;;;
2021/12/01 02:25:09;;;;;;;1;0.4;;;;;;;4.12;98.03809;931.5336;;;;
2021/12/01 02:27:34;;;;;;;1.9;1.2;;;;;;;4.31;97.11426;931.493;;;;
2021/12/01 02:29:59;;;;;;;1.3;1.2;;;;;;;4.28;96.71387;931.4814;;;;
2021/12/01 02:32:24;;;;;;;0.6;0.6;;;;;;;4.31;96.32813;931.4111;;;;
2021/12/01 02:34:49;;;;;;;0.4;0.4;;;;;;;4.25;97.60742;931.4114;;;;
2021/12/01 02:37:15;;;;;;;0.3;0.3;;;;;;;4.39;96.9541;931.3483;;;;
2021/12/01 02:40:16;;;;;;;0.2;0.2;;;;;;;4.3;96.61914;931.3809;;;;
2021/12/01 02:42:41;;;;;;;0.6;0.2;;;;;;;4.57;95.92578;931.313;;;;
2021/12/01 02:45:06;;;;;;;0.2;0.2;;;;;;;4.64;95.43555;931.1782;;;;
2021/12/01 02:47:32;;;;;;;0.2;0.2;;;;;;;4.65;95.31348;931.0648;;;;
2021/12/01 02:49:57;;;;;;;0.2;0.2;;;;;;;4.54;95.19922;931.0765;;;;
2021/12/01 02:52:23;;;;;;;0.3;0.3;;;;;;;4.49;95.72754;931.0717;;;;
2021/12/01 02:54:48;;;;;;;0.5;0.5;;;;;;;4.3;96.67285;931.0705;;;;
2021/12/01 02:57:14;;;;;;;0.7;0.7;;;;;;;3.99;97.57031;931.0878;;;;
2021/12/01 02:59:48;;;;;;;1.5;1.4;;;;;;;4.08;98.15527;931.0577;;;;
2021/12/01 03:02:16;;;;;;;0.4;0.4;;;;;;;4.15;98.42871;930.904;;;;
2021/12/01 03:04:41;;;;;;;1.5;1.4;;;;;;;4.22;98.13965;931.0988;;;;
2021/12/01 03:07:09;;;;;;;2.1;2;;;;;;;4.3;97.89063;931.032;;;;
2021/12/01 03:09:33;;;;;;;0.6;0.6;;;;;;;4.4;97.55273;931.1215;;;;
2021/12/01 03:12:03;;;;;;;0.4;0.4;;;;;;;4.52;96.67871;931.0453;;;;
2021/12/01 03:14:29;;;;;;;0.4;0.4;;;;;;;4.5;96.60742;930.9709;;;;
2021/12/01 03:16:54;;;;;;;0.2;0.2;;;;;;;4.65;96.24609;930.9127;;;;
2021/12/01 03:19:19;;;;;;;0.2;0.2;;;;;;;4.76;95.12305;930.9139;;;;
2021/12/01 03:21:44;;;;;;;0.7;0.7;;;;;;;4.6;95.16602;930.7971;;;;
2021/12/01 03:24:42;;;;;;;0.7;0.7;;;;;;;4.56;95.6875;930.7191;;;;
2021/12/01 03:27:10;;;;;;;0.5;0.5;;;;;;;4.38;95.98242;930.7316;;;;
2021/12/01 03:29:35;;;;;;;1.6;1;;;;;;;4.43;96.39941;930.7101;;;;
2021/12/01 03:32:00;;;;;;;0.9;0.9;;;;;;;4.35;96.84277;930.7288;;;;
2021/12/01 03:34:26;;;;;;;0.6;0.6;;;;;;;4.37;97.03809;930.5684;;;;
2021/12/01 03:36:52;;;;;;;0.7;0.7;;;;;;;4.39;96.77441;930.6666;;;;
2021/12/01 03:39:18;;;;;;;1.7;1.6;;;;;;;4.39;96.85059;930.5994;;;;
2021/12/01 03:41:43;;;;;;;0.5;0.5;;;;;;;4.37;97.33105;930.6496;;;;
2021/12/01 03:44:12;;;;;;;0.9;0.9;;;;;;;4.46;96.74316;930.5073;;;;
2021/12/01 03:46:37;;;;;;;0.7;0.7;;;;;;;4.56;96.37402;930.5101;;;;
2021/12/01 03:49:05;;;;;;;0.6;0.6;;;;;;;4.55;96.05469;930.5541;;;;
2021/12/01 03:51:29;;;;;;;1;1;;;;;;;4.64;95.66992;930.3778;;;;
2021/12/01 03:53:57;;;;;;;1;0.9;;;;;;;4.54;95.4668;930.3741;;;;
2021/12/01 03:56:22;;;;;;;0.6;0.6;;;;;;;4.56;95.79785;930.3816;;;;
2021/12/01 03:58:50;;;;;;;0.7;0.5;;;;;;;4.59;95.44531;930.2868;;;;
2021/12/01 04:02:32;;;;;;;2.1;0.6;;;;;;;4.36;96.83594;930.2112;;;;
2021/12/01 04:04:56;;;;;;;0.8;0.7;;;;;;;4.35;97.75488;930.0581;;;;
2021/12/01 04:07:22;;;;;;;0.6;0.6;;;;;;;4.44;97.05664;930.0586;;;;
2021/12/01 04:09:48;;;;;;;0.6;0.6;;;;;;;4.42;96.80273;930.0369;;;;
2021/12/01 04:12:14;;;;;;;0.4;0.4;;;;;;;4.51;96.65625;930.0867;;;;
2021/12/01 04:14:38;;;;;;;1.7;0.6;;;;;;;4.47;97.34277;930.0519;;;;
2021/12/01 04:17:13;;;;;;;0.3;0.3;;;;;;;4.46;97.84668;930.0864;;;;
2021/12/01 04:19:38;;;;;;;0.3;0.3;;;;;;;4.53;97.0957;930.1051;;;;
2021/12/01 04:22:07;;;;;;;0.5;0.4;;;;;;;4.46;96.7002;930.0203;;;;
2021/12/01 04:24:28;;;;;;;0.4;0.4;;;;;;;4.52;96.11621;929.9386;;;;
2021/12/01 04:26:59;;;;;;;1.1;0.8;;;;;;;4.74;95.47754;929.8822;;;;
2021/12/01 04:29:28;;;;;;;0.6;0.6;;;;;;;4.8;95.03027;929.8508;;;;
2021/12/01 04:31:53;;;;;;;0.4;0.4;;;;;;;4.82;95.45117;929.7545;;;;
2021/12/01 04:34:20;;;;;;;0.7;0.4;;;;;;;4.85;95.49316;929.778;;;;
2021/12/01 04:36:49;;;;;;;0.4;0.4;;;;;;;4.95;94.84863;929.7527;;;;
2021/12/01 04:39:13;;;;;;;2.6;0.6;;;;;;;4.95;94.69043;929.6926;;;;
2021/12/01 04:42:03;;;;;;;0.5;0.4;;;;;;;4.98;94.42773;929.6563;;;;
2021/12/01 04:44:22;;;;;;;0.5;0.4;;;;;;;5.05;94.07227;929.5906;;;;
2021/12/01 04:46:48;;;;;;;0.6;0.4;;;;;;;4.98;93.90918;929.5606;;;;
2021/12/01 04:49:14;;;;;;;1.6;0.6;;;;;;;4.89;94.57715;929.6785;;;;
2021/12/01 04:51:39;;;;;;;1.4;1.2;;;;;;;4.73;95.97168;929.6887;;;;
2021/12/01 04:54:04;;;;;;;0.8;0.8;;;;;;;4.67;96.17383;929.557;;;;
2021/12/01 04:56:31;;;;;;;0.8;0.8;;;;;;;4.63;96.7041;929.4836;;;;
2021/12/01 04:58:57;;;;;;;1.1;0.6;;;;;;;4.79;96.61621;929.4658;;;;
2021/12/01 05:01:26;;;;;;;1;0.6;;;;;;;4.94;96.2998;929.3762;;;;
2021/12/01 05:03:50;;;;;;;1;0.7;;;;;;;4.9;96.02148;929.2778;;;;
2021/12/01 05:06:18;;;;;;;1;0.7;;;;;;;4.81;96.46094;929.3726;;;;
2021/12/01 05:08:43;;;;;;;0.7;0.5;;;;;;;4.86;96.33789;929.2953;;;;
2021/12/01 05:11:07;;;;;;;0.7;0.7;;;;;;;4.85;96.29297;929.3748;;;;
2021/12/01 05:13:33;;;;;;;0.9;0.7;;;;;;;4.9;95.80957;929.3244;;;;
2021/12/01 05:16:11;;;;;;;1.6;1.3;;;;;;;4.61;96.80078;929.2972;;;;
2021/12/01 05:18:37;;;;;;;7.9;4.3;;;;;;;4.34;97.8877;929.1872;;;;
2021/12/01 05:21:02;;;;;;;12.9;6.8;;;;;;;4.21;98.93652;929.1328;;;;
2021/12/01 05:23:29;;;;;;;14;7.4;;;;;;;4.17;99.32129;929.1318;;;;
2021/12/01 05:25:54;;;;;;;13.7;6.7;;;;;;;4.26;99.28906;929.1047;;;;
2021/12/01 05:28:19;;;;;;;13.4;7.9;;;;;;;4.31;98.5791;929.0859;;;;
2021/12/01 05:30:47;;;;;;;9.8;6.3;;;;;;;4.37;97.89355;928.9647;;;;
2021/12/01 05:33:14;;;;;;;10.7;4.9;;;;;;;4.18;97.7959;928.9454;;;;
2021/12/01 05:35:37;;;;;;;9.2;4.8;;;;;;;4.05;98.87793;928.8744;;;;
2021/12/01 05:38:05;;;;;;;4.1;3;;;;;;;4.05;98.99023;928.9067;;;;
2021/12/01 05:40:30;;;;;;;4.5;3.1;;;;;;;3.87;99.87012;928.8984;;;;
2021/12/01 05:42:57;;;;;;;5.9;3.6;;;;;;;3.77;100;928.8577;;;;
2021/12/01 05:45:22;;;;;;;5.1;3.1;;;;;;;3.76;100;928.8794;;;;
2021/12/01 05:47:50;;;;;;;6;3.5;;;;;;;3.76;100;928.8636;;;;
2021/12/01 05:50:15;;;;;;;10.2;5.7;;;;;;;3.78;100;928.7933;;;;
2021/12/01 05:52:41;;;;;;;7.8;5.7;;;;;;;3.96;99.74512;928.7559;;;;
2021/12/01 05:55:06;;;;;;;10;5.6;;;;;;;3.94;99.37012;928.8588;;;;
2021/12/01 05:57:32;;;;;;;6.3;4.2;;;;;;;3.96;100;928.7969;;;;
2021/12/01 05:59:59;;;;;;;5.6;3.7;;;;;;;3.95;99.73242;928.7242;;;;
2021/12/01 06:02:22;;;;;;;5.1;3.1;;;;;;;3.87;100;928.5959;;;;
2021/12/01 06:04:50;;;;;;;4;2.4;;;;;;;4;100;928.5778;;;;
2021/12/01 06:07:15;;;;;;;5.3;3;;;;;;;4.01;99.62305;928.5145;;;;
2021/12/01 06:09:41;;;;;;;5.2;3.5;;;;;;;4.03;98.95313;928.4874;;;;
2021/12/01 06:12:06;;;;;;;5.1;3.5;;;;;;;3.88;98.77051;928.4056;;;;
2021/12/01 06:14:34;;;;;;;4.6;3.3;;;;;;;3.73;99.32227;928.405;;;;
2021/12/01 06:17:05;;;;;;;5.7;3.4;;;;;;;3.69;99.53418;928.3624;;;;
2021/12/01 06:19:34;;;;;;;5.6;3.9;;;;;;;3.48;100;928.4016;;;;
2021/12/01 06:22:00;;;;;;;7;4.2;;;;;;;3.58;100;928.3082;;;;
2021/12/01 06:24:25;;;;;;;8.3;4.7;;;;;;;3.48;100;928.3488;;;;
2021/12/01 06:26:51;;;;;;;9.3;6.3;;;;;;;3.34;100;928.2717;;;;
2021/12/01 06:29:16;;;;;;;11;6.1;;;;;;;3.41;100;928.2869;;;;
2021/12/01 06:31:44;;;;;;;10.5;5.9;;;;;;;3.5;100;928.3317;;;;
2021/12/01 06:34:09;;;;;;;10.7;6;;;;;;;3.54;99.88379;928.3059;;;;
2021/12/01 06:36:37;;;;;;;11.7;7.5;;;;;;;3.63;99.12988;928.182;;;;
2021/12/01 06:39:02;;;;;;;10.9;6.5;;;;;;;3.59;98.57129;928.1038;;;;
2021/12/01 06:41:30;;;;;;;8.8;6;;;;;;;3.45;98.98535;928.0538;;;;
2021/12/01 06:43:55;;;;;;;9.9;6.4;;;;;;;3.49;98.90527;928.098;;;;
2021/12/01 06:46:21;;;;;;;11.7;7.3;;;;;;;3.61;98.1123;928.0588;;;;
2021/12/01 06:48:46;;;;;;;9.2;6.6;;;;;;;3.61;97.73047;928.0108;;;;
2021/12/01 06:51:12;;;;;;;9.9;6.2;;;;;;;3.7;97.17871;928.0076;;;;
2021/12/01 06:53:38;;;;;;;8.8;5.6;;;;;;;3.72;96.9375;928.0293;;;;
2021/12/01 06:56:05;;;;;;;6.8;5.2;;;;;;;3.81;96.47266;927.9705;;;;
2021/12/01 06:58:30;;;;;;;7.8;6;;;;;;;3.71;96.31543;928.052;;;;
2021/12/01 07:00:57;;;;;;;8.1;6.3;;;;;;;3.78;95.80273;927.983;;;;
2021/12/01 07:03:23;;;;;;;6.6;5.6;;;;;;;3.76;96.0127;928.041;;;;
2021/12/01 07:05:52;;;;;;;8.9;6.1;;;;;;;3.62;97.52148;927.9363;;;;
2021/12/01 07:08:21;;;;;;;10;5.6;;;;;;;3.83;96.92871;927.9622;;;;
2021/12/01 07:10:46;;;;;;;8.1;5.2;;;;;;;3.89;96.37891;927.8861;;;;
2021/12/01 07:13:13;;;;;;;9.9;6.2;;;;;;;3.87;96.10449;927.7905;;;;
2021/12/01 07:15:42;;;;;;;14.6;10.9;;;;;;;3.94;95.6709;927.8461;;;;
2021/12/01 07:18:07;;;;;;;18.3;13.3;;;;;;;3.97;95.46387;927.7466;;;;
2021/12/01 07:20:37;;;;;;;16.1;10.9;;;;;;;4.05;94.46777;927.7788;;;;
2021/12/01 07:23:02;;;;;;;20.6;14.3;;;;;;;4.09;93.81445;927.6819;;;;
2021/12/01 07:25:27;;;;;;;27.7;17.8;;;;;;;4.24;93.39746;927.6065;;;;
2021/12/01 07:27:54;;;;;;;25;16.1;;;;;;;4.37;92.79492;927.5912;;;;
2021/12/01 07:30:19;;;;;;;30.1;19.1;;;;;;;4.46;92.25195;927.5463;;;;
2021/12/01 07:32:48;;;;;;;41;25.6;;;;;;;4.44;91.97949;927.5058;;;;
2021/12/01 07:35:12;;;;;;;17.3;9.6;;;;;;;4.41;92.5459;927.3621;;;;
2021/12/01 07:37:37;;;;;;;11;6.5;;;;;;;4.23;91.875;927.4394;;;;
2021/12/01 07:40:03;;;;;;;12.7;7.3;;;;;;;4.33;91.68457;927.4094;;;;
2021/12/01 07:42:30;;;;;;;6.4;4;;;;;;;4.41;91.39844;927.3951;;;;
2021/12/01 07:44:55;;;;;;;6.4;4.4;;;;;;;4.27;91.41406;927.4503;;;;
2021/12/01 07:47:21;;;;;;;7.4;4.6;;;;;;;4.46;91.48828;927.2974;;;;
2021/12/01 07:49:47;;;;;;;6.6;4.6;;;;;;;4.42;91.91797;927.4363;;;;
2021/12/01 07:52:13;;;;;;;8.2;4.9;;;;;;;4.51;91.96875;927.3933;;;;
2021/12/01 07:54:39;;;;;;;8.9;4.7;;;;;;;4.67;91.67773;927.351;;;;
2021/12/01 07:57:05;;;;;;;8.6;5.5;;;;;;;4.77;91.09277;927.3846;;;;
2021/12/01 07:59:30;;;;;;;15.1;8.5;;;;;;;4.86;91.00879;927.3481;;;;
2021/12/01 08:01:57;;;;;;;11.3;7.3;;;;;;;4.88;90.27051;927.313;;;;
2021/12/01 08:04:22;;;;;;;15.8;10.7;;;;;;;5.05;89.96875;927.2925;;;;
2021/12/01 08:06:48;;;;;;;12.7;8.4;;;;;;;5.19;89.31152;927.3076;;;;
2021/12/01 08:09:14;;;;;;;11.9;7.9;;;;;;;5.19;89.33203;927.2508;;;;
2021/12/01 08:11:40;;;;;;;24.6;14;;;;;;;5.3;89.80566;927.3326;;;;
2021/12/01 08:14:06;;;;;;;35.6;20.5;;;;;;;5.53;88.78125;927.2408;;;;
2021/12/01 08:16:35;;;;;;;26.3;18;;;;;;;5.67;87.16309;927.1864;;;;
2021/12/01 08:19:00;;;;;;;23.6;16.8;;;;;;;6.14;88.63965;927.2103;;;;
2021/12/01 08:21:28;;;;;;;9.4;7.2;;;;;;;7.81;81.00684;927.0482;;;;
2021/12/01 08:23:53;;;;;;;33.7;20.8;;;;;;;10.18;71.78027;927.012;;;;
2021/12/01 08:26:22;;;;;;;14.3;8.8;;;;;;;12.26;61.37305;926.9035;;;;
2021/12/01 08:28:47;;;;;;;15.9;11.1;;;;;;;13.91;56.56738;926.8027;;;;
2021/12/01 08:31:15;;;;;;;10.7;7.9;;;;;;;15.03;52.54785;926.8123;;;;
2021/12/01 08:34:28;;;;;;;8.5;6.4;;;;;;;15.16;50.05957;926.8336;;;;
2021/12/01 08:36:48;;;;;;;10;7.4;;;;;;;13.44;53.73535;926.7928;;;;
2021/12/01 08:41:39;;;;;;;9.6;7.3;;;;;;;10.84;62.98926;926.7687;;;;
2021/12/01 08:44:05;;;;;;;4.7;3.3;;;;;;;9.34;68.58984;926.8203;;;;
2021/12/01 08:46:30;;;;;;;4.8;3.5;;;;;;;8.79;70.69531;926.8223;;;;
2021/12/01 08:48:58;;;;;;;6.3;5.4;;;;;;;8.35;73.44141;926.7637;;;;
2021/12/01 08:51:22;;;;;;;7.2;5.4;;;;;;;7.93;74.98242;926.8295;;;;
2021/12/01 08:53:49;;;;;;;7.6;5.4;;;;;;;7.53;77.06543;926.8903;;;;
2021/12/01 08:56:14;;;;;;;6.3;5.2;;;;;;;7.27;78.57227;926.8457;;;;
2021/12/01 08:58:42;;;;;;;6.6;5.4;;;;;;;7.05;79.92383;926.9041;;;;
2021/12/01 09:01:07;;;;;;;8.4;5.6;;;;;;;6.9;80.69922;926.8658;;;;
2021/12/01 09:03:38;;;;;;;7.7;5.6;;;;;;;6.81;81.58984;926.78;;;;
2021/12/01 09:06:04;;;;;;;8.5;5.9;;;;;;;6.58;83.28711;926.7902;;;;
2021/12/01 09:08:29;;;;;;;7.7;5.7;;;;;;;6.05;86.33594;926.7949;;;;
2021/12/01 09:10:56;;;;;;;6.3;4.9;;;;;;;5.85;88.08008;926.7547;;;;
2021/12/01 09:13:26;;;;;;;6.4;4.7;;;;;;;6.01;87.61719;926.7819;;;;
2021/12/01 09:15:56;;;;;;;5.1;4.2;;;;;;;6.03;87.90527;926.7488;;;;
2021/12/01 09:18:18;;;;;;;5.8;4.5;;;;;;;5.97;88.25391;926.6548;;;;
2021/12/01 09:20:48;;;;;;;5.4;4.1;;;;;;;5.98;88.62598;926.5798;;;;
2021/12/01 09:23:13;;;;;;;6.1;4.8;;;;;;;6.02;88.44531;926.7045;;;;
2021/12/01 09:25:38;;;;;;;6.7;5.2;;;;;;;5.93;88.22363;926.676;;;;
2021/12/01 09:28:07;;;;;;;9.2;5.4;;;;;;;5.96;89.07617;926.5678;;;;
2021/12/01 09:30:39;;;;;;;6.8;5.1;;;;;;;6.13;88.18359;926.6965;;;;
2021/12/01 09:33:06;;;;;;;8.1;5.4;;;;;;;5.98;88.81836;926.6998;;;;
2021/12/01 09:35:31;;;;;;;7.8;5.6;;;;;;;5.93;89.77051;926.6727;;;;
2021/12/01 09:37:59;;;;;;;8;5.6;;;;;;;6.08;89.53906;926.6464;;;;
2021/12/01 09:40:35;;;;;;;6.5;4.8;;;;;;;6.13;88.7373;926.6247;;;;
2021/12/01 09:43:05;;;;;;;5;4.1;;;;;;;6.19;88.58105;926.6788;;;;
2021/12/01 09:45:36;;;;;;;5;4.1;;;;;;;6.19;88.2168;926.5366;;;;
2021/12/01 09:48:01;;;;;;;4.4;3.5;;;;;;;6.25;88.02832;926.4843;;;;
2021/12/01 09:50:29;;;;;;;4.2;3.4;;;;;;;6.39;87.7959;926.5373;;;;
2021/12/01 09:52:54;;;;;;;3.6;3.1;;;;;;;6.37;88.25391;926.4028;;;;
2021/12/01 09:55:24;;;;;;;4.2;3.6;;;;;;;6.46;88.16211;926.4194;;;;
2021/12/01 09:57:49;;;;;;;3.6;3;;;;;;;6.52;87.84668;926.3881;;;;
2021/12/01 10:00:14;;;;;;;2.6;2.4;;;;;;;6.58;87.96191;926.3987;;;;
2021/12/01 10:02:39;;;;;;;2.6;2.3;;;;;;;6.59;88.07422;926.3631;;;;
2021/12/01 10:05:05;;;;;;;1.8;1.6;;;;;;;6.7;87.20508;926.2492;;;;
2021/12/01 10:07:30;;;;;;;2;1.6;;;;;;;6.78;86.51758;926.108;;;;
2021/12/01 10:09:58;;;;;;;1.8;1.7;;;;;;;6.85;86.96289;926.1339;;;;
2021/12/01 10:12:20;;;;;;;1.4;1.3;;;;;;;6.83;87.1875;926.1116;;;;
2021/12/01 10:14:45;;;;;;;1.7;1.6;;;;;;;6.9;87.32227;926.1198;;;;
2021/12/01 10:17:13;;;;;;;1.9;1.2;;;;;;;6.89;86.68848;926.0952;;;;
2021/12/01 10:19:43;;;;;;;1.4;1;;;;;;;6.77;86.88965;925.983;;;;
2021/12/01 10:22:08;;;;;;;2.1;1.3;;;;;;;6.69;88.06152;925.9604;;;;
2021/12/01 10:24:34;;;;;;;1.8;1.6;;;;;;;6.9;86.92773;925.9236;;;;
2021/12/01 10:26:58;;;;;;;1.7;1.4;;;;;;;6.89;87.02832;925.8206;;;;
2021/12/01 10:29:23;;;;;;;1.8;1.6;;;;;;;6.84;86.45117;925.8339;;;;
2021/12/01 10:31:49;;;;;;;2.6;2.4;;;;;;;6.68;86.92969;925.7983;;;;
2021/12/01 10:34:14;;;;;;;2.6;2.1;;;;;;;6.34;88.04492;925.79;;;;
2021/12/01 10:36:40;;;;;;;3.5;2.5;;;;;;;6.44;87.83984;925.6595;;;;
2021/12/01 10:39:09;;;;;;;3;2.4;;;;;;;6.4;87.67578;925.6038;;;;
2021/12/01 10:41:36;;;;;;;2.6;2;;;;;;;6.36;88.57129;925.5553;;;;
2021/12/01 10:44:01;;;;;;;2.8;2.1;;;;;;;6.55;87.7959;925.4844;;;;
2021/12/01 10:46:26;;;;;;;2.6;2.1;;;;;;;6.72;86.77832;925.3943;;;;
2021/12/01 10:48:51;;;;;;;1.7;1.6;;;;;;;6.76;86.32129;925.3533;;;;
2021/12/01 10:51:16;;;;;;;2.1;1.9;;;;;;;6.73;86.18945;925.3128;;;;
2021/12/01 10:53:42;;;;;;;2.3;1.6;;;;;;;6.9;86.16797;925.2043;;;;
2021/12/01 10:56:07;;;;;;;1.9;1.6;;;;;;;7.01;86.40625;925.2405;;;;
2021/12/01 10:58:36;;;;;;;3;1.7;;;;;;;7.21;85.22266;925.1238;;;;
2021/12/01 11:01:03;;;;;;;3.7;2.2;;;;;;;7.23;85.7041;925.0264;;;;
2021/12/01 11:03:27;;;;;;;3.4;2.1;;;;;;;7.32;86.89941;925.0153;;;;
2021/12/01 11:05:52;;;;;;;1.9;1.5;;;;;;;7.28;85.89453;924.9314;;;;
2021/12/01 11:08:17;;;;;;;1.8;1.6;;;;;;;7.11;85.73535;924.8884;;;;
2021/12/01 11:10:42;;;;;;;2.5;1.9;;;;;;;7.29;86.84863;924.9448;;;;
2021/12/01 11:13:07;;;;;;;2.6;2;;;;;;;7.4;86.72266;924.8079;;;;
2021/12/01 11:15:45;;;;;;;2;1.8;;;;;;;7.36;85.04785;924.8031;;;;
2021/12/01 11:18:14;;;;;;;2.5;2;;;;;;;7.14;85.52734;924.7648;;;;
2021/12/01 11:20:39;;;;;;;2.4;2.2;;;;;;;7.15;85.30273;924.7403;;;;
2021/12/01 11:23:04;;;;;;;2.3;2.1;;;;;;;7.25;84.92383;924.7391;;;;
2021/12/01 11:25:32;;;;;;;2.8;2.5;;;;;;;7.38;84.24609;924.6503;;;;
2021/12/01 11:27:56;;;;;;;3.5;1.9;;;;;;;7.29;84.04883;924.5411;;;;
2021/12/01 11:30:21;;;;;;;2.3;2.1;;;;;;;7.4;84.33105;924.4547;;;;
2021/12/01 11:32:52;;;;;;;2.2;1.9;;;;;;;7.42;83.62012;924.4969;;;;
2021/12/01 11:35:21;;;;;;;2.1;1.9;;;;;;;7.36;84.30176;924.3621;;;;
2021/12/01 11:37:46;;;;;;;2.6;2;;;;;;;7.52;85.16113;924.3067;;;;
2021/12/01 11:40:17;;;;;;;2.1;1.9;;;;;;;7.59;85.78613;924.1973;;;;
2021/12/01 11:42:42;;;;;;;1.6;1.5;;;;;;;7.64;84.71973;924.1278;;;;
2021/12/01 11:45:15;;;;;;;4;1.8;;;;;;;7.7;83.91309;924.1197;;;;
2021/12/01 11:47:46;;;;;;;3.8;2.2;;;;;;;7.64;84.41113;924.0676;;;;
2021/12/01 11:50:05;;;;;;;2.2;2;;;;;;;7.69;83.45801;923.9573;;;;
2021/12/01 11:52:30;;;;;;;3.5;2.1;;;;;;;7.83;85.01563;923.8058;;;;
2021/12/01 11:54:58;;;;;;;3;2.1;;;;;;;7.82;83.68848;923.7908;;;;
2021/12/01 11:57:23;;;;;;;2.8;2.5;;;;;;;7.96;84.44141;923.6864;;;;
2021/12/01 11:59:48;;;;;;;2.7;2.2;;;;;;;8.09;85.09082;923.6266;;;;
2021/12/01 12:02:19;;;;;;;3.2;2.4;;;;;;;8.18;82.87305;923.5983;;;;
2021/12/01 12:04:47;;;;;;;2.9;2.2;;;;;;;8;82.74609;923.5229;;;;
2021/12/01 12:07:12;;;;;;;2.8;2.1;;;;;;;8.13;83.04199;923.5479;;;;
2021/12/01 12:09:37;;;;;;;2.4;2;;;;;;;8.17;82.84668;923.5262;;;;
2021/12/01 12:12:03;;;;;;;2.8;1.6;;;;;;;8.23;82.97266;923.4294;;;;
2021/12/01 12:14:28;;;;;;;2.8;2;;;;;;;8.14;81.18359;923.3995;;;;
2021/12/01 12:16:58;;;;;;;3;2.2;;;;;;;8.1;81.4707;923.3998;;;;
2021/12/01 12:19:23;;;;;;;3.4;2;;;;;;;8.08;81.37598;923.3524;;;;
2021/12/01 12:21:51;;;;;;;3.2;2.2;;;;;;;8.14;81.22949;923.4004;;;;
2021/12/01 12:24:16;;;;;;;2.3;2.1;;;;;;;8.14;82.77344;923.3123;;;;
2021/12/01 12:26:40;;;;;;;3.1;1.9;;;;;;;8.31;82.22754;923.3505;;;;
2021/12/01 12:29:03;;;;;;;3;2.1;;;;;;;8.51;80.84473;923.2489;;;;
2021/12/01 12:31:31;;;;;;;6.5;2.8;;;;;;;8.45;80.49219;923.2415;;;;
2021/12/01 12:33:57;;;;;;;2.7;1.7;;;;;;;8.1;80.22363;923.2761;;;;
2021/12/01 12:36:26;;;;;;;2.2;1.7;;;;;;;8.24;80.91895;923.3223;;;;
2021/12/01 12:38:47;;;;;;;3;1.5;;;;;;;8.23;81.00781;923.1908;;;;
2021/12/01 12:41:12;;;;;;;2.9;2;;;;;;;8.24;80.57813;923.1671;;;;
2021/12/01 12:43:38;;;;;;;3.2;2;;;;;;;8.22;80.3584;923.0616;;;;
2021/12/01 12:46:04;;;;;;;3.1;2.1;;;;;;;7.93;81.03125;922.8948;;;;
2021/12/01 12:48:29;;;;;;;4.1;2.7;;;;;;;8.06;81.40723;922.8998;;;;
2021/12/01 12:50:58;;;;;;;2.8;2.2;;;;;;;8.21;80.5498;922.7462;;;;
2021/12/01 12:53:24;;;;;;;2.9;2.1;;;;;;;8.34;79.9375;922.7717;;;;
2021/12/01 12:55:50;;;;;;;3.7;2.2;;;;;;;8.57;79.88867;922.6806;;;;
2021/12/01 12:58:16;;;;;;;2;1.8;;;;;;;8.65;78.32324;922.6445;;;;
2021/12/01 13:00:40;;;;;;;3.9;2.2;;;;;;;8.76;79.37793;922.5014;;;;
2021/12/01 13:03:05;;;;;;;2;1.7;;;;;;;8.76;78.8457;922.5442;;;;
2021/12/01 13:05:31;;;;;;;3.5;1.6;;;;;;;8.67;77.97656;922.4785;;;;
2021/12/01 13:07:59;;;;;;;1.7;1.5;;;;;;;8.77;78.89258;922.3212;;;;
2021/12/01 13:10:22;;;;;;;2.9;1.2;;;;;;;8.62;77.56836;922.4099;;;;
2021/12/01 13:12:47;;;;;;;1.9;1.4;;;;;;;8.77;78.34668;922.3442;;;;
2021/12/01 13:15:12;;;;;;;1.8;1.3;;;;;;;8.96;77.82324;922.2981;;;;
2021/12/01 13:17:40;;;;;;;2.5;1.8;;;;;;;9.02;78.65234;922.2009;;;;
2021/12/01 13:20:10;;;;;;;2.7;2.2;;;;;;;8.99;79.22754;922.1716;;;;
2021/12/01 13:22:35;;;;;;;3.2;2.2;;;;;;;9.11;79.42188;922.1442;;;;
2021/12/01 13:25:01;;;;;;;5.1;3.2;;;;;;;9.08;79.26758;922.1383;;;;
2021/12/01 13:27:26;;;;;;;4.2;2.8;;;;;;;8.99;78.06738;922.1517;;;;
2021/12/01 13:29:51;;;;;;;3.4;2.4;;;;;;;8.81;79.04688;922.0925;;;;
2021/12/01 13:32:17;;;;;;;4.8;3;;;;;;;8.59;79.01855;922.0267;;;;
2021/12/01 13:34:41;;;;;;;4.6;2.9;;;;;;;8.51;79.63965;922.0005;;;;
2021/12/01 13:37:08;;;;;;;3;2.4;;;;;;;8.25;80.26172;922.0728;;;;
2021/12/01 13:39:34;;;;;;;4;3.3;;;;;;;7.85;82.27734;921.9808;;;;
2021/12/01 13:41:59;;;;;;;8.1;5;;;;;;;7.54;83.0332;922.0908;;;;
2021/12/01 13:44:26;;;;;;;10;5.1;;;;;;;6.91;86.29395;921.9345;;;;
2021/12/01 13:46:51;;;;;;;5.5;3.7;;;;;;;6.74;86.23926;922.0447;;;;
2021/12/01 13:49:19;;;;;;;3.6;2.4;;;;;;;6.7;86.77246;921.9989;;;;
2021/12/01 13:51:44;;;;;;;3.1;2.7;;;;;;;6.88;86.55078;921.9924;;;;
2021/12/01 13:54:09;;;;;;;4.3;2.9;;;;;;;6.89;85.7373;921.9694;;;;
2021/12/01 13:56:35;;;;;;;6.2;5.2;;;;;;;7.05;84.92871;922.0363;;;;
2021/12/01 13:59:00;;;;;;;7.9;6;;;;;;;7.34;84.9209;921.9997;;;;
2021/12/01 14:01:28;;;;;;;7.1;5.4;;;;;;;7.37;83.62305;921.9457;;;;
2021/12/01 14:03:54;;;;;;;5.7;3.9;;;;;;;6.93;84.62207;921.9519;;;;
2021/12/01 14:06:19;;;;;;;4.7;3.2;;;;;;;6.44;86.82324;921.9162;;;;
2021/12/01 14:08:44;;;;;;;4.4;3.1;;;;;;;6.74;87.07617;921.915;;;;
2021/12/01 14:11:22;;;;;;;6.3;3.7;;;;;;;6.88;86.89063;921.8555;;;;
2021/12/01 14:13:37;;;;;;;7.2;3.6;;;;;;;7.1;87.00098;921.7386;;;;
2021/12/01 14:16:20;;;;;;;5.8;3.1;;;;;;;7.21;86.99023;921.656;;;;
2021/12/01 14:18:34;;;;;;;6.5;3.4;;;;;;;7.12;85.5791;921.5731;;;;
2021/12/01 14:21:19;;;;;;;5.6;3.6;;;;;;;7.15;86.03711;921.6086;;;;
2021/12/01 14:23:31;;;;;;;4.1;2.7;;;;;;;7.11;86.2002;921.5328;;;;
2021/12/01 14:26:06;;;;;;;5.1;2.8;;;;;;;7.04;85.99316;921.5006;;;;
2021/12/01 14:30:35;;;;;;;4.7;2.9;;;;;;;7.16;86.32422;921.3133;;;;
2021/12/01 14:33:10;;;;;;;4.3;2.6;;;;;;;7.1;86.38867;921.3794;;;;
2021/12/01 14:35:20;;;;;;;;;;;;;;;;;;;;;
2021/12/01 14:37:51;;;;;;;3.1;2;;;;;;;7.09;87.23828;921.2781;;;;
2021/12/01 14:50:59;;;;;;;6.1;4;;;;;;;7.12;86.75684;921.2344;;;;
2021/12/01 14:54:46;;;;;;;6.4;4.6;;;;;;;7.14;87.23633;921.2991;;;;
2021/12/01 14:58:16;;;;;;;8.1;4.7;;;;;;;6.8;87.87012;921.2932;;;;
2021/12/01 14:59:16;;;;;;;7.9;5.2;;;;;;;6.73;89.25879;921.2656;;;;